Time;durP1;ratioP1;P1;durP2;ratioP2;P2;SDS_P1;SDS_P2;PMS_P1;PMS_P2;Temp;Humidity;BMP_temperature;BMP_pressure;BME280_temperature;BME280_humidity;BME280_pressure;Samples;Min_cycle;Max_cycle;Signal;HPM_P1;HPM_P2
2022/10/27 00:01:17;;;;;;;;;;;14.50;63.10;;;;;;5004820;28;88010;-37
2022/10/27 00:03:43;;;;;;;;;;;14.50;63.10;;;;;;5005152;28;87415;-37
2022/10/27 00:06:08;;;;;;;;;;;14.50;63.10;;;;;;5005652;28;87486;-37
2022/10/27 00:08:34;;;;;;;;;;;14.50;63.00;;;;;;5004721;28;88211;-37
2022/10/27 00:11:01;;;;;;;;;;;14.50;63.10;;;;;;5004947;28;87244;-37
2022/10/27 00:13:27;;;;;;;;;;;14.50;63.10;;;;;;5004110;28;88088;-38
2022/10/27 00:16:19;;;;;;;;;;;14.50;63.20;;;;;;5007172;28;87598;-37
2022/10/27 00:18:45;;;;;;;;;;;14.50;63.10;;;;;;5004261;28;87496;-37
2022/10/27 00:21:12;;;;;;;;;;;14.50;63.10;;;;;;5004604;28;87675;-37
2022/10/27 00:23:38;;;;;;;;;;;14.50;63.10;;;;;;5004609;28;87147;-37
2022/10/27 00:26:04;;;;;;;;;;;14.40;63.00;;;;;;5004824;28;87494;-37
2022/10/27 00:28:30;;;;;;;;;;;14.40;63.10;;;;;;5004160;28;87551;-37
2022/10/27 00:31:04;;;;;;;;;;;14.40;63.00;;;;;;5004116;28;86356;-37
2022/10/27 00:33:29;;;;;;;;;;;14.40;63.00;;;;;;5004589;28;87357;-37
2022/10/27 00:35:55;;;;;;;;;;;14.40;63.10;;;;;;5007030;28;87120;-37
2022/10/27 00:38:21;;;;;;;;;;;14.40;63.10;;;;;;5003729;28;87798;-37
2022/10/27 00:40:47;;;;;;;;;;;14.40;63.10;;;;;;5004146;28;88020;-37
2022/10/27 00:43:26;;;;;;;;;;;14.30;63.10;;;;;;5004418;28;87099;-37
2022/10/27 00:45:52;;;;;;;;;;;14.40;63.10;;;;;;5004157;28;87243;-37
2022/10/27 00:48:18;;;;;;;;;;;14.30;63.10;;;;;;5004028;28;87076;-37
2022/10/27 00:50:44;;;;;;;;;;;14.30;63.10;;;;;;5004292;28;86771;-37
2022/10/27 00:53:10;;;;;;;;;;;14.30;63.00;;;;;;5004403;28;87509;-38
2022/10/27 00:55:37;;;;;;;;;;;14.30;63.10;;;;;;5004434;28;87406;-37
2022/10/27 00:58:04;;;;;;;;;;;14.30;63.10;;;;;;5006923;28;87049;-37
2022/10/27 01:00:30;;;;;;;;;;;14.30;63.10;;;;;;5003740;28;87967;-38
2022/10/27 01:02:55;;;;;;;;;;;14.30;63.10;;;;;;5003413;28;87846;-37
2022/10/27 01:05:22;;;;;;;;;;;14.20;63.00;;;;;;5003940;28;88554;-37
2022/10/27 01:07:48;;;;;;;;;;;14.30;63.10;;;;;;5003723;28;88047;-38
2022/10/27 01:10:15;;;;;;;;;;;14.20;63.00;;;;;;5003921;28;86966;-37
2022/10/27 01:12:41;;;;;;;;;;;14.20;62.90;;;;;;5003529;28;88440;-37
2022/10/27 01:15:07;;;;;;;;;;;14.20;63.00;;;;;;5003540;28;88046;-37
2022/10/27 01:17:55;;;;;;;;;;;14.20;63.10;;;;;;5003696;28;87317;-37
2022/10/27 01:20:36;;;;;;;;;;;14.20;63.10;;;;;;5005884;28;87503;-37
2022/10/27 01:23:04;;;;;;;;;;;14.20;63.00;;;;;;5003657;28;87069;-37
2022/10/27 01:25:36;;;;;;;;;;;14.20;63.00;;;;;;5003839;28;86998;-37
2022/10/27 01:28:16;;;;;;;;;;;14.20;63.10;;;;;;5002705;28;89150;-37
2022/10/27 01:30:56;;;;;;;;;;;14.10;63.00;;;;;;5003370;28;87148;-37
2022/10/27 01:33:27;;;;;;;;;;;14.10;63.10;;;;;;5003828;28;87297;-37
2022/10/27 01:36:02;;;;;;;;;;;14.10;63.10;;;;;;5003430;28;88223;-37
2022/10/27 01:38:30;;;;;;;;;;;14.10;63.10;;;;;;5003351;28;86996;-37
2022/10/27 01:40:59;;;;;;;;;;;14.10;63.10;;;;;;5003275;28;87178;-37
2022/10/27 01:43:25;;;;;;;;;;;14.00;63.00;;;;;;5005841;28;87979;-37
2022/10/27 01:45:51;;;;;;;;;;;14.00;63.10;;;;;;5003819;28;87411;-37
2022/10/27 01:48:18;;;;;;;;;;;14.10;63.10;;;;;;5002976;28;87160;-37
2022/10/27 01:50:43;;;;;;;;;;;14.00;63.10;;;;;;5003475;28;87032;-37
2022/10/27 01:53:12;;;;;;;;;;;14.00;63.10;;;;;;5002855;28;87894;-37
2022/10/27 01:55:54;;;;;;;;;;;14.00;63.10;;;;;;5002781;28;88007;-37
2022/10/27 01:58:28;;;;;;;;;;;14.00;63.10;;;;;;5003145;28;87169;-37
2022/10/27 02:01:03;;;;;;;;;;;14.00;63.10;;;;;;5003306;28;87618;-37
2022/10/27 02:03:33;;;;;;;;;;;14.00;63.10;;;;;;5003022;28;87984;-37
2022/10/27 02:06:03;;;;;;;;;;;13.90;63.20;;;;;;5005749;28;87060;-37
2022/10/27 02:08:34;;;;;;;;;;;13.90;63.20;;;;;;5002680;28;87631;-37
2022/10/27 02:11:04;;;;;;;;;;;14.00;63.20;;;;;;5003323;28;86262;-37
2022/10/27 02:13:30;;;;;;;;;;;13.90;63.30;;;;;;5002634;28;87094;-37
2022/10/27 02:15:59;;;;;;;;;;;13.90;63.30;;;;;;5002608;28;87762;-37
2022/10/27 02:18:29;;;;;;;;;;;13.80;63.30;;;;;;5002324;28;88001;-37
2022/10/27 02:20:58;;;;;;;;;;;13.80;63.30;;;;;;5002867;28;87360;-37
2022/10/27 02:23:24;;;;;;;;;;;13.90;63.30;;;;;;5002446;28;88139;-37
2022/10/27 02:25:57;;;;;;;;;;;13.80;63.30;;;;;;5002915;28;87085;-37
2022/10/27 02:28:38;;;;;;;;;;;13.80;63.30;;;;;;5005434;28;87363;-37
2022/10/27 02:31:04;;;;;;;;;;;13.80;63.50;;;;;;5002356;28;87090;-37
2022/10/27 02:33:29;;;;;;;;;;;13.80;63.40;;;;;;5002670;28;88086;-37
2022/10/27 02:35:56;;;;;;;;;;;13.80;63.40;;;;;;5003123;28;87173;-37
2022/10/27 02:38:21;;;;;;;;;;;13.80;63.40;;;;;;5002467;28;87114;-37
2022/10/27 02:40:47;;;;;;;;;;;13.70;63.40;;;;;;5002734;28;87549;-37
2022/10/27 02:43:12;;;;;;;;;;;13.70;63.40;;;;;;5001437;28;89153;-37
2022/10/27 02:45:38;;;;;;;;;;;13.70;63.50;;;;;;5002360;28;88159;-37
2022/10/27 02:48:04;;;;;;;;;;;13.70;63.40;;;;;;5005005;28;87436;-37
2022/10/27 02:50:29;;;;;;;;;;;13.70;63.40;;;;;;5002524;28;87049;-37
2022/10/27 02:52:54;;;;;;;;;;;13.60;63.60;;;;;;5002620;28;86977;-37
2022/10/27 02:55:20;;;;;;;;;;;13.70;63.60;;;;;;5004202;28;88115;-37
2022/10/27 02:57:46;;;;;;;;;;;13.70;63.60;;;;;;5006080;28;87073;-37
2022/10/27 03:00:12;;;;;;;;;;;13.70;63.60;;;;;;5006502;28;87291;-37
2022/10/27 03:02:37;;;;;;;;;;;13.60;63.60;;;;;;5005309;28;87077;-37
2022/10/27 03:05:03;;;;;;;;;;;13.60;63.70;;;;;;5006099;28;86938;-37
2022/10/27 03:07:28;;;;;;;;;;;13.70;63.60;;;;;;5005389;28;88068;-37
2022/10/27 03:09:54;;;;;;;;;;;13.60;63.60;;;;;;5008476;28;87780;-37
2022/10/27 03:12:19;;;;;;;;;;;13.60;63.70;;;;;;5005293;28;87389;-37
2022/10/27 03:14:45;;;;;;;;;;;13.60;63.70;;;;;;5005876;28;87501;-37
2022/10/27 03:17:10;;;;;;;;;;;13.60;63.60;;;;;;5005587;28;87182;-37
2022/10/27 03:19:36;;;;;;;;;;;13.60;63.60;;;;;;5005550;28;87971;-37
2022/10/27 03:22:01;;;;;;;;;;;13.60;63.60;;;;;;5005309;28;88071;-37
2022/10/27 03:24:27;;;;;;;;;;;13.50;63.70;;;;;;5006222;28;86353;-37
2022/10/27 03:26:52;;;;;;;;;;;13.50;63.70;;;;;;5005682;28;86972;-37
2022/10/27 03:29:18;;;;;;;;;;;13.50;63.70;;;;;;5005257;28;87339;-37
2022/10/27 03:31:43;;;;;;;;;;;13.50;63.80;;;;;;5007642;28;88034;-37
2022/10/27 03:34:09;;;;;;;;;;;13.50;63.80;;;;;;5005231;28;88023;-37
2022/10/27 03:36:35;;;;;;;;;;;13.50;63.70;;;;;;5005721;28;87656;-37
2022/10/27 03:39:00;;;;;;;;;;;13.50;63.60;;;;;;5005607;28;87123;-37
2022/10/27 03:41:26;;;;;;;;;;;13.50;63.70;;;;;;5005073;28;86855;-37
2022/10/27 03:43:51;;;;;;;;;;;13.50;63.70;;;;;;5005519;28;87057;-37
2022/10/27 03:46:17;;;;;;;;;;;13.40;63.70;;;;;;5005376;28;87036;-37
2022/10/27 03:48:42;;;;;;;;;;;13.40;63.70;;;;;;5005493;28;87438;-37
2022/10/27 03:51:08;;;;;;;;;;;13.40;63.80;;;;;;5005311;28;87037;-38
2022/10/27 03:53:33;;;;;;;;;;;13.40;63.70;;;;;;5007738;28;87315;-38
2022/10/27 03:55:59;;;;;;;;;;;13.40;63.80;;;;;;5004424;28;88046;-38
2022/10/27 03:58:24;;;;;;;;;;;13.40;63.70;;;;;;5005044;28;88233;-38
2022/10/27 04:00:50;;;;;;;;;;;13.40;63.70;;;;;;5004752;28;88176;-37
2022/10/27 04:03:15;;;;;;;;;;;13.40;63.70;;;;;;5005202;28;87073;-37
2022/10/27 04:05:41;;;;;;;;;;;13.40;63.60;;;;;;5005143;28;87242;-37
2022/10/27 04:08:06;;;;;;;;;;;13.40;63.50;;;;;;5004707;28;87968;-37
2022/10/27 04:10:32;;;;;;;;;;;13.40;63.60;;;;;;5004830;28;87219;-37
2022/10/27 04:12:57;;;;;;;;;;;13.40;63.50;;;;;;5005002;28;87380;-37
2022/10/27 04:15:24;;;;;;;;;;;13.40;63.60;;;;;;5007514;28;88255;-37
2022/10/27 04:17:53;;;;;;;;;;;13.30;63.70;;;;;;5004674;28;87421;-37
2022/10/27 04:20:19;;;;;;;;;;;13.30;63.50;;;;;;5003747;28;89126;-37
2022/10/27 04:22:44;;;;;;;;;;;13.30;63.70;;;;;;5004841;28;87088;-37
2022/10/27 04:25:10;;;;;;;;;;;13.30;63.70;;;;;;5004889;28;87451;-37
2022/10/27 04:27:35;;;;;;;;;;;13.30;63.70;;;;;;5004402;28;87169;-37
2022/10/27 04:30:01;;;;;;;;;;;13.30;63.70;;;;;;5004282;28;87094;-37
2022/10/27 04:32:26;;;;;;;;;;;13.30;63.70;;;;;;5004617;28;87504;-37
2022/10/27 04:34:52;;;;;;;;;;;13.20;63.60;;;;;;5004405;28;87799;-37
2022/10/27 04:37:17;;;;;;;;;;;13.20;63.60;;;;;;5007753;28;86518;-37
2022/10/27 04:39:43;;;;;;;;;;;13.30;63.70;;;;;;5004088;28;87274;-37
2022/10/27 04:42:09;;;;;;;;;;;13.20;63.50;;;;;;5004363;28;87087;-37
2022/10/27 04:44:34;;;;;;;;;;;13.20;63.40;;;;;;5003851;28;87983;-37
2022/10/27 04:47:00;;;;;;;;;;;13.20;63.70;;;;;;5003817;28;88298;-37
2022/10/27 04:49:25;;;;;;;;;;;13.20;63.70;;;;;;5004368;28;87395;-37
2022/10/27 04:51:51;;;;;;;;;;;13.20;63.60;;;;;;5004393;28;88760;-37
2022/10/27 04:54:16;;;;;;;;;;;13.20;63.60;;;;;;5003964;28;88169;-37
2022/10/27 04:56:42;;;;;;;;;;;13.10;63.60;;;;;;5007148;28;87148;-37
2022/10/27 04:59:07;;;;;;;;;;;13.20;63.60;;;;;;5003652;28;88036;-38
2022/10/27 05:01:33;;;;;;;;;;;13.20;63.60;;;;;;5004483;28;86417;-37
2022/10/27 05:03:59;;;;;;;;;;;13.10;63.60;;;;;;5004157;28;86838;-37
2022/10/27 05:06:24;;;;;;;;;;;13.20;63.60;;;;;;5003830;28;88139;-37
2022/10/27 05:08:50;;;;;;;;;;;13.10;63.60;;;;;;5003539;28;88084;-37
2022/10/27 05:11:16;;;;;;;;;;;13.10;63.60;;;;;;5003424;28;88622;-37
2022/10/27 05:13:41;;;;;;;;;;;13.10;63.60;;;;;;5003582;28;88140;-37
2022/10/27 05:16:07;;;;;;;;;;;13.10;63.60;;;;;;5003840;28;87078;-37
2022/10/27 05:18:32;;;;;;;;;;;13.10;63.50;;;;;;5005499;28;87696;-37
2022/10/27 05:20:58;;;;;;;;;;;13.10;63.60;;;;;;5004321;28;87414;-37
2022/10/27 05:23:25;;;;;;;;;;;13.10;63.60;;;;;;5003751;28;87249;-37
2022/10/27 05:25:51;;;;;;;;;;;13.10;63.50;;;;;;5003858;28;87186;-37
2022/10/27 05:28:17;;;;;;;;;;;13.10;63.60;;;;;;5003670;28;87068;-37
2022/10/27 05:30:42;;;;;;;;;;;13.10;63.50;;;;;;5003454;28;87451;-37
2022/10/27 05:33:08;;;;;;;;;;;13.10;63.60;;;;;;5002407;28;88900;-37
2022/10/27 05:35:33;;;;;;;;;;;13.10;63.60;;;;;;5003710;28;87019;-37
2022/10/27 05:37:59;;;;;;;;;;;13.10;63.50;;;;;;5003646;28;87339;-37
2022/10/27 05:40:24;;;;;;;;;;;13.10;63.60;;;;;;5006093;28;88320;-37
2022/10/27 05:42:51;;;;;;;;;;;13.00;63.50;;;;;;5003528;28;87355;-37
2022/10/27 05:45:17;;;;;;;;;;;13.00;63.60;;;;;;5003236;28;87150;-37
2022/10/27 05:47:43;;;;;;;;;;;13.00;63.50;;;;;;5003243;28;87571;-37
2022/10/27 05:50:08;;;;;;;;;;;13.00;63.50;;;;;;5003991;28;87434;-37
2022/10/27 05:52:34;;;;;;;;;;;13.00;63.50;;;;;;5003138;28;88169;-37
2022/10/27 05:54:59;;;;;;;;;;;13.00;63.60;;;;;;5003517;28;86918;-37
2022/10/27 05:57:25;;;;;;;;;;;13.00;63.50;;;;;;5002810;28;88018;-37
2022/10/27 05:59:50;;;;;;;;;;;13.00;63.50;;;;;;5002891;28;88447;-37
2022/10/27 06:02:16;;;;;;;;;;;13.00;63.50;;;;;;5006046;28;87100;-37
2022/10/27 06:04:41;;;;;;;;;;;13.00;63.50;;;;;;5002867;28;88411;-37
2022/10/27 06:07:07;;;;;;;;;;;12.90;63.50;;;;;;5003075;28;87161;-37
2022/10/27 06:09:32;;;;;;;;;;;12.90;63.50;;;;;;5003118;28;87447;-37
2022/10/27 06:11:58;;;;;;;;;;;12.90;63.60;;;;;;5002392;28;88374;-37
2022/10/27 06:14:23;;;;;;;;;;;12.90;63.40;;;;;;5003632;28;86348;-37
2022/10/27 06:16:49;;;;;;;;;;;13.00;63.50;;;;;;5002771;28;86710;-37
2022/10/27 06:19:14;;;;;;;;;;;13.00;63.50;;;;;;5002530;28;87289;-37
2022/10/27 06:21:40;;;;;;;;;;;13.00;63.40;;;;;;5002474;28;88072;-37
2022/10/27 06:24:05;;;;;;;;;;;13.00;63.50;;;;;;5005330;28;88159;-37
2022/10/27 06:26:31;;;;;;;;;;;13.00;63.50;;;;;;5003083;28;87114;-37
2022/10/27 06:28:56;;;;;;;;;;;12.90;63.50;;;;;;5001767;28;86914;-37
2022/10/27 06:31:22;;;;;;;;;;;12.90;63.40;;;;;;5002210;28;87706;-37
2022/10/27 06:33:47;;;;;;;;;;;12.90;63.50;;;;;;5003040;28;87014;-37
2022/10/27 06:36:13;;;;;;;;;;;13.00;63.40;;;;;;5002760;28;86972;-37
2022/10/27 06:38:38;;;;;;;;;;;12.90;63.40;;;;;;5002789;28;86390;-37
2022/10/27 06:41:04;;;;;;;;;;;12.90;63.40;;;;;;5002592;28;87081;-37
2022/10/27 06:43:30;;;;;;;;;;;13.00;63.40;;;;;;5005418;28;87657;-37
2022/10/27 06:45:55;;;;;;;;;;;12.90;63.50;;;;;;5002093;28;88108;-37
2022/10/27 06:48:21;;;;;;;;;;;12.90;63.40;;;;;;5002658;28;88249;-37
2022/10/27 06:50:46;;;;;;;;;;;12.90;63.50;;;;;;5002273;28;87258;-37
2022/10/27 06:53:12;;;;;;;;;;;12.90;63.50;;;;;;5002363;28;87043;-37
2022/10/27 06:55:37;;;;;;;;;;;12.90;63.50;;;;;;5002555;28;86921;-37
2022/10/27 06:58:03;;;;;;;;;;;13.00;63.50;;;;;;5002224;28;88324;-37
2022/10/27 07:00:29;;;;;;;;;;;12.90;63.50;;;;;;5002383;28;87079;-37
2022/10/27 07:02:54;;;;;;;;;;;13.00;63.50;;;;;;5002890;28;86555;-37
2022/10/27 07:05:20;;;;;;;;;;;12.90;63.40;;;;;;5005010;28;88259;-37
2022/10/27 07:07:49;;;;;;;;;;;12.90;64.10;;;;;;5002482;28;87268;-37
2022/10/27 07:10:15;;;;;;;;;;;12.90;63.50;;;;;;5001148;28;88929;-37
2022/10/27 07:12:57;;;;;;;;;;;12.90;63.60;;;;;;5001726;28;87064;-37
2022/10/27 07:15:23;;;;;;;;;;;12.90;63.60;;;;;;5001998;28;87613;-37
2022/10/27 07:17:59;;;;;;;;;;;12.90;63.60;;;;;;5001874;28;88081;-37
2022/10/27 07:20:25;;;;;;;;;;;12.90;63.50;;;;;;5001973;28;87310;-38
2022/10/27 07:22:51;;;;;;;;;;;12.90;63.60;;;;;;5002210;28;87662;-37
2022/10/27 07:25:16;;;;;;;;;;;12.90;63.70;;;;;;5001720;28;87892;-37
2022/10/27 07:27:46;;;;;;;;;;;12.90;63.80;;;;;;5005477;28;86387;-37
2022/10/27 07:30:11;;;;;;;;;;;12.90;63.70;;;;;;5001323;28;87964;-38
2022/10/27 07:32:37;;;;;;;;;;;12.90;63.80;;;;;;5001956;28;87063;-37
2022/10/27 07:35:02;;;;;;;;;;;12.90;63.80;;;;;;5001494;28;87951;-37
2022/10/27 07:37:28;;;;;;;;;;;12.90;63.90;;;;;;5001764;28;88141;-37
2022/10/27 07:39:53;;;;;;;;;;;12.90;63.90;;;;;;5001895;28;87072;-37
2022/10/27 07:42:19;;;;;;;;;;;12.90;63.90;;;;;;5005386;28;87384;-37
2022/10/27 07:44:44;;;;;;;;;;;12.90;63.90;;;;;;5004867;28;87985;-37
2022/10/27 07:47:10;;;;;;;;;;;12.90;64.00;;;;;;5005432;28;87040;-37
2022/10/27 07:49:35;;;;;;;;;;;12.90;64.00;;;;;;5007908;28;87669;-37
2022/10/27 07:52:01;;;;;;;;;;;12.90;64.00;;;;;;5005755;28;86815;-37
2022/10/27 07:54:28;;;;;;;;;;;12.90;64.10;;;;;;5005456;28;86960;-37
2022/10/27 07:56:53;;;;;;;;;;;12.90;64.10;;;;;;5004849;28;88299;-37
2022/10/27 07:59:19;;;;;;;;;;;12.90;64.70;;;;;;5004238;28;88039;-37
2022/10/27 08:01:44;;;;;;;;;;;12.90;64.20;;;;;;5005094;28;88399;-37
2022/10/27 08:04:10;;;;;;;;;;;12.90;64.30;;;;;;5004804;28;87936;-37
2022/10/27 08:06:35;;;;;;;;;;;12.90;64.30;;;;;;5004936;28;87060;-37
2022/10/27 08:09:01;;;;;;;;;;;12.90;64.30;;;;;;5004847;28;87034;-37
2022/10/27 08:11:27;;;;;;;;;;;12.90;64.40;;;;;;5007134;28;88324;-38
2022/10/27 08:13:53;;;;;;;;;;;12.90;64.50;;;;;;5004885;28;87417;-37
2022/10/27 08:16:19;;;;;;;;;;;12.90;64.60;;;;;;5004969;28;87368;-37
2022/10/27 08:18:44;;;;;;;;;;;12.80;64.60;;;;;;5004615;28;87089;-37
2022/10/27 08:21:10;;;;;;;;;;;12.80;64.60;;;;;;5005018;28;87318;-37
2022/10/27 08:23:37;;;;;;;;;;;12.80;64.70;;;;;;5003901;28;89273;-37
2022/10/27 08:26:02;;;;;;;;;;;12.80;64.70;;;;;;5004731;28;87088;-37
2022/10/27 08:28:28;;;;;;;;;;;12.80;64.70;;;;;;5004600;28;87417;-37
2022/10/27 08:30:53;;;;;;;;;;;12.80;64.70;;;;;;5003739;28;88011;-37
2022/10/27 08:33:20;;;;;;;;;;;12.90;64.80;;;;;;5007694;28;87097;-37
2022/10/27 08:35:45;;;;;;;;;;;12.80;64.70;;;;;;5004277;28;87818;-37
2022/10/27 08:38:12;;;;;;;;;;;12.90;64.70;;;;;;5004481;28;87119;-37
2022/10/27 08:40:40;;;;;;;;;;;12.90;64.50;;;;;;5005060;28;87382;-37
2022/10/27 08:43:06;;;;;;;;;;;12.90;64.60;;;;;;5004180;28;87250;-37
2022/10/27 08:45:33;;;;;;;;;;;12.90;64.40;;;;;;5004440;28;87070;-37
2022/10/27 08:47:59;;;;;;;;;;;12.90;64.30;;;;;;5003699;28;87994;-37
2022/10/27 08:50:32;;;;;;;;;;;12.90;64.40;;;;;;5003924;28;88565;-37
2022/10/27 08:53:10;;;;;;;;;;;12.90;64.40;;;;;;5006090;28;87013;-37
2022/10/27 08:55:41;;;;;;;;;;;12.90;64.50;;;;;;5004023;28;88154;-37
2022/10/27 08:58:25;;;;;;;;;;;12.90;64.50;;;;;;5004458;28;87135;-37
2022/10/27 09:00:51;;;;;;;;;;;12.90;64.50;;;;;;5004267;28;86966;-37
2022/10/27 09:03:32;;;;;;;;;;;12.90;64.50;;;;;;5003717;28;88185;-37
2022/10/27 09:06:01;;;;;;;;;;;13.00;64.50;;;;;;5004703;28;86258;-37
2022/10/27 09:08:27;;;;;;;;;;;13.00;64.40;;;;;;5003724;28;86976;-37
2022/10/27 09:11:00;;;;;;;;;;;13.00;64.50;;;;;;5003588;28;88223;-37
2022/10/27 09:13:28;;;;;;;;;;;13.00;64.50;;;;;;5002888;28;88097;-37
2022/10/27 09:15:56;;;;;;;;;;;13.00;65.10;;;;;;5006554;28;88473;-37
2022/10/27 09:18:41;;;;;;;;;;;13.00;64.50;;;;;;5003193;28;87083;-37
2022/10/27 09:21:26;;;;;;;;;;;13.00;64.50;;;;;;5002944;28;87275;-37
2022/10/27 09:23:51;;;;;;;;;;;13.00;64.40;;;;;;5003246;28;88051;-37
2022/10/27 09:26:19;;;;;;;;;;;13.00;64.40;;;;;;5003354;28;87048;-37
2022/10/27 09:28:51;;;;;;;;;;;13.00;64.40;;;;;;5003476;28;87445;-37
2022/10/27 09:31:20;;;;;;;;;;;13.00;64.40;;;;;;5002923;28;86446;-37
2022/10/27 09:33:51;;;;;;;;;;;13.00;64.30;;;;;;5003352;28;87402;-37
2022/10/27 09:36:18;;;;;;;;;;;13.00;64.40;;;;;;5003520;28;87571;-37
2022/10/27 09:38:44;;;;;;;;;;;13.00;64.40;;;;;;5005560;28;89102;-37
2022/10/27 09:41:09;;;;;;;;;;;13.10;64.30;;;;;;5003712;28;88415;-37
2022/10/27 09:43:35;;;;;;;;;;;13.10;64.40;;;;;;5003357;28;87981;-37
2022/10/27 09:46:24;;;;;;;;;;;13.10;64.30;;;;;;5003163;28;87136;-37
2022/10/27 09:49:00;;;;;;;;;;;13.10;64.30;;;;;;5002917;28;87075;-37
2022/10/27 09:51:27;;;;;;;;;;;13.10;64.40;;;;;;5002929;28;87905;-37
2022/10/27 09:53:53;;;;;;;;;;;13.10;64.40;;;;;;5003158;28;87071;-37
2022/10/27 09:56:26;;;;;;;;;;;13.10;64.30;;;;;;5003682;28;87338;-37
2022/10/27 09:58:56;;;;;;;;;;;13.10;64.20;;;;;;5002727;28;87064;-37
2022/10/27 10:01:22;;;;;;;;;;;13.20;64.30;;;;;;5006085;28;87633;-37
2022/10/27 10:03:58;;;;;;;;;;;13.10;64.20;;;;;;5001989;28;88939;-37
2022/10/27 10:06:33;;;;;;;;;;;13.20;64.20;;;;;;5002883;28;87210;-37
2022/10/27 10:09:17;;;;;;;;;;;13.20;64.10;;;;;;5002782;28;87326;-37
2022/10/27 10:11:43;;;;;;;;;;;13.20;64.00;;;;;;5002290;28;87627;-37
2022/10/27 10:14:18;;;;;;;;;;;13.20;64.00;;;;;;5003156;28;86849;-37
2022/10/27 10:16:43;;;;;;;;;;;13.30;63.90;;;;;;5003128;28;87414;-37
2022/10/27 10:19:15;;;;;;;;;;;13.30;63.70;;;;;;5002515;28;87533;-37
2022/10/27 10:21:47;;;;;;;;;;;13.30;63.70;;;;;;5003137;28;86838;-37
2022/10/27 10:24:17;;;;;;;;;;;13.30;63.60;;;;;;5005559;28;86972;-37
2022/10/27 10:26:50;;;;;;;;;;;13.30;63.50;;;;;;5002978;28;87145;-37
2022/10/27 10:29:26;;;;;;;;;;;13.30;63.40;;;;;;5002360;28;87828;-37
2022/10/27 10:32:11;;;;;;;;;;;13.40;63.60;;;;;;5002337;28;88113;-37
2022/10/27 10:34:37;;;;;;;;;;;13.30;63.70;;;;;;5002062;28;87047;-37
2022/10/27 10:37:22;;;;;;;;;;;13.30;63.80;;;;;;5002707;28;87186;-37
2022/10/27 10:39:48;;;;;;;;;;;13.30;63.90;;;;;;5002461;28;88090;-37
2022/10/27 10:42:16;;;;;;;;;;;13.40;63.70;;;;;;5002831;28;87128;-37
2022/10/27 10:44:42;;;;;;;;;;;13.40;63.60;;;;;;5002617;28;87453;-37
2022/10/27 10:47:27;;;;;;;;;;;13.40;63.70;;;;;;5005693;28;87372;-37
2022/10/27 10:49:55;;;;;;;;;;;13.40;63.70;;;;;;5002771;28;86964;-37
2022/10/27 10:52:28;;;;;;;;;;;13.50;63.70;;;;;;5002047;28;87927;-37
2022/10/27 10:54:54;;;;;;;;;;;13.40;63.50;;;;;;5001702;28;87790;-37
2022/10/27 10:57:23;;;;;;;;;;;13.50;64.10;;;;;;5002693;28;88412;-37
2022/10/27 10:59:52;;;;;;;;;;;13.50;64.00;;;;;;5001941;28;88023;-37
2022/10/27 11:02:22;;;;;;;;;;;13.50;64.10;;;;;;5002513;28;87119;-37
2022/10/27 11:04:47;;;;;;;;;;;13.50;63.50;;;;;;5002118;28;87576;-37
2022/10/27 11:07:19;;;;;;;;;;;13.50;63.80;;;;;;5004964;28;88127;-37
2022/10/27 11:09:47;;;;;;;;;;;13.50;64.00;;;;;;5002324;28;87416;-37
2022/10/27 11:12:21;;;;;;;;;;;13.50;63.00;;;;;;5002099;28;87257;-38
2022/10/27 11:14:48;;;;;;;;;;;13.60;63.80;;;;;;5002485;28;86954;-37
2022/10/27 11:17:13;;;;;;;;;;;13.60;63.80;;;;;;5005589;28;87549;-37
2022/10/27 11:19:39;;;;;;;;;;;13.60;63.90;;;;;;5004786;28;89149;-37
2022/10/27 11:22:10;;;;;;;;;;;13.60;63.40;;;;;;5005669;28;86972;-37
2022/10/27 11:24:41;;;;;;;;;;;13.60;63.10;;;;;;5005704;28;87357;-37
2022/10/27 11:27:30;;;;;;;;;;;13.60;62.90;;;;;;5005308;28;87991;-37
2022/10/27 11:30:03;;;;;;;;;;;13.70;63.10;;;;;;5007313;28;87069;-37
2022/10/27 11:32:41;;;;;;;;;;;13.70;62.70;;;;;;5005073;28;88028;-37
2022/10/27 11:35:12;;;;;;;;;;;13.70;63.20;;;;;;5005321;28;87152;-37
2022/10/27 11:38:04;;;;;;;;;;;13.70;63.30;;;;;;5005926;28;87435;-37
2022/10/27 11:40:29;;;;;;;;;;;13.70;62.70;;;;;;5003288;28;88002;-37
2022/10/27 11:42:55;;;;;;;;;;;13.70;62.70;;;;;;5005454;28;87054;-37
2022/10/27 11:45:20;;;;;;;;;;;13.70;63.30;;;;;;5004776;28;87834;-37
2022/10/27 11:47:49;;;;;;;;;;;13.70;62.40;;;;;;5004984;28;87962;-37
2022/10/27 11:50:14;;;;;;;;;;;13.80;62.70;;;;;;5005347;28;86955;-37
2022/10/27 11:52:43;;;;;;;;;;;13.80;63.20;;;;;;5007922;28;87400;-37
2022/10/27 11:55:10;;;;;;;;;;;13.80;62.30;;;;;;5005217;28;86998;-37
2022/10/27 11:57:35;;;;;;;;;;;13.80;62.50;;;;;;5004966;28;87345;-37
2022/10/27 12:00:12;;;;;;;;;;;13.80;62.40;;;;;;5004816;28;87915;-37
2022/10/27 12:02:43;;;;;;;;;;;13.80;62.10;;;;;;5005829;28;86258;-37
2022/10/27 12:05:11;;;;;;;;;;;13.90;62.50;;;;;;5005058;28;87000;-37
2022/10/27 12:07:43;;;;;;;;;;;13.80;62.50;;;;;;5004584;28;88052;-37
2022/10/27 12:10:08;;;;;;;;;;;13.90;61.90;;;;;;5004243;28;87991;-37
2022/10/27 12:12:38;;;;;;;;;;;13.90;61.40;;;;;;5004697;28;88326;-37
2022/10/27 12:15:09;;;;;;;;;;;13.90;62.40;;;;;;5007451;28;87840;-37
2022/10/27 12:17:47;;;;;;;;;;;13.90;61.10;;;;;;5004509;28;87017;-38
2022/10/27 12:20:16;;;;;;;;;;;13.90;60.90;;;;;;5004461;28;87209;-37
2022/10/27 12:23:02;;;;;;;;;;;14.00;61.20;;;;;;5004638;28;87079;-37
2022/10/27 12:25:33;;;;;;;;;;;14.00;61.60;;;;;;5004627;28;87339;-37
2022/10/27 12:28:01;;;;;;;;;;;13.90;61.10;;;;;;5003483;28;87464;-37
2022/10/27 12:30:27;;;;;;;;;;;14.00;61.20;;;;;;5004404;28;89011;-37
2022/10/27 12:33:01;;;;;;;;;;;14.00;61.20;;;;;;5004546;28;86985;-37
2022/10/27 12:35:29;;;;;;;;;;;14.00;61.50;;;;;;5003672;28;89078;-37
2022/10/27 12:38:09;;;;;;;;;;;14.00;61.20;;;;;;5007711;28;87163;-37
2022/10/27 12:40:42;;;;;;;;;;;14.10;60.80;;;;;;5004193;28;87156;-37
2022/10/27 12:43:08;;;;;;;;;;;14.10;61.00;;;;;;5004430;28;87038;-37
2022/10/27 12:45:52;;;;;;;;;;;14.10;60.40;;;;;;5004396;28;87260;-37
2022/10/27 12:48:27;;;;;;;;;;;14.10;60.80;;;;;;5004113;28;88121;-37
2022/10/27 12:51:11;;;;;;;;;;;14.10;60.90;;;;;;5004650;28;87095;-37
2022/10/27 12:53:39;;;;;;;;;;;14.10;61.00;;;;;;5004979;28;87172;-37
2022/10/27 12:56:05;;;;;;;;;;;14.10;60.90;;;;;;5003661;28;88162;-37
2022/10/27 12:58:37;;;;;;;;;;;14.10;59.60;;;;;;5004057;28;87055;-37
2022/10/27 13:01:20;;;;;;;;;;;14.20;60.60;;;;;;5006330;28;87904;-37
2022/10/27 13:04:01;;;;;;;;;;;14.20;60.80;;;;;;5004278;28;87074;-37
2022/10/27 13:06:59;;;;;;;;;;;14.20;60.60;;;;;;5004277;28;87055;-37
2022/10/27 13:09:25;;;;;;;;;;;14.20;59.70;;;;;;5002275;28;87093;-37
2022/10/27 13:11:53;;;;;;;;;;;14.20;59.50;;;;;;5003674;28;87196;-37
2022/10/27 13:14:28;;;;;;;;;;;14.20;60.20;;;;;;5004093;28;87471;-37
2022/10/27 13:17:18;;;;;;;;;;;14.20;59.60;;;;;;5003827;28;88111;-37
2022/10/27 13:19:51;;;;;;;;;;;14.20;60.30;;;;;;5004547;28;86144;-37
2022/10/27 13:22:16;;;;;;;;;;;14.20;60.00;;;;;;5006239;28;87042;-37
2022/10/27 13:25:01;;;;;;;;;;;14.30;60.30;;;;;;5003968;28;87111;-37
2022/10/27 13:27:39;;;;;;;;;;;14.30;59.90;;;;;;5003166;28;87893;-37
2022/10/27 13:30:07;;;;;;;;;;;14.30;60.40;;;;;;5003280;28;88343;-37
2022/10/27 13:32:38;;;;;;;;;;;14.30;60.10;;;;;;5003419;28;87061;-37
2022/10/27 13:35:09;;;;;;;;;;;14.30;60.90;;;;;;5003697;28;87394;-37
2022/10/27 13:37:44;;;;;;;;;;;14.30;60.70;;;;;;5003274;28;88071;-37
2022/10/27 13:40:18;;;;;;;;;;;14.40;60.70;;;;;;5003077;28;87190;-37
2022/10/27 13:42:44;;;;;;;;;;;14.40;60.50;;;;;;5003512;28;87210;-37
2022/10/27 13:45:28;;;;;;;;;;;14.40;60.20;;;;;;5006469;28;87493;-37
2022/10/27 13:48:06;;;;;;;;;;;14.40;60.60;;;;;;5003599;28;86811;-37
2022/10/27 13:50:32;;;;;;;;;;;14.40;60.50;;;;;;5002997;28;87535;-37
2022/10/27 13:53:13;;;;;;;;;;;14.50;59.90;;;;;;5002984;28;87811;-37
2022/10/27 13:55:39;;;;;;;;;;;14.40;60.60;;;;;;5003466;28;88261;-37
2022/10/27 13:58:19;;;;;;;;;;;14.50;60.70;;;;;;5003045;28;88091;-37
2022/10/27 14:01:03;;;;;;;;;;;14.40;59.30;;;;;;5003363;28;87110;-37
2022/10/27 14:03:47;;;;;;;;;;;14.50;60.60;;;;;;5003369;28;87442;-37
2022/10/27 14:06:13;;;;;;;;;;;14.50;60.60;;;;;;5002978;28;88491;-37
2022/10/27 14:08:44;;;;;;;;;;;14.50;60.90;;;;;;5006150;28;87110;-37
2022/10/27 14:11:30;;;;;;;;;;;14.50;59.90;;;;;;5002829;28;86603;-38
2022/10/27 14:14:06;;;;;;;;;;;14.60;60.00;;;;;;5002854;28;87283;-37
2022/10/27 14:16:34;;;;;;;;;;;14.50;61.40;;;;;;5003426;28;86996;-37
2022/10/27 14:19:04;;;;;;;;;;;14.60;59.90;;;;;;5001829;28;89207;-37
2022/10/27 14:21:32;;;;;;;;;;;14.60;59.70;;;;;;5003104;28;87107;-37
2022/10/27 14:24:06;;;;;;;;;;;14.60;60.10;;;;;;5002595;28;87629;-37
2022/10/27 14:26:31;;;;;;;;;;;14.60;60.60;;;;;;5002460;28;87268;-37